sensor_id;sensor_type;location;lat;lon;timestamp;P1;durP1;ratioP1;P2;durP2;ratioP2
66402;SDS011;53212;52.112;5.144;2022-08-25T00:05:19;9.40;;;7.60;;
66402;SDS011;53212;52.112;5.144;2022-08-25T00:07:54;8.00;;;7.20;;
66402;SDS011;53212;52.112;5.144;2022-08-25T00:10:30;7.60;;;7.00;;
66402;SDS011;53212;52.112;5.144;2022-08-25T00:13:01;8.30;;;7.50;;
66402;SDS011;53212;52.112;5.144;2022-08-25T00:15:31;10.10;;;7.30;;
66402;SDS011;53212;52.112;5.144;2022-08-25T00:17:58;9.10;;;8.10;;
66402;SDS011;53212;52.112;5.144;2022-08-25T00:20:26;10.40;;;7.70;;
66402;SDS011;53212;52.112;5.144;2022-08-25T00:22:53;9.50;;;7.40;;
66402;SDS011;53212;52.112;5.144;2022-08-25T00:25:21;9.50;;;7.30;;
66402;SDS011;53212;52.112;5.144;2022-08-25T00:27:49;8.20;;;6.80;;
66402;SDS011;53212;52.112;5.144;2022-08-25T00:30:17;8.00;;;7.20;;
66402;SDS011;53212;52.112;5.144;2022-08-25T00:32:44;9.70;;;6.90;;
66402;SDS011;53212;52.112;5.144;2022-08-25T00:35:10;7.80;;;7.00;;
66402;SDS011;53212;52.112;5.144;2022-08-25T00:37:39;12.90;;;8.00;;
66402;SDS011;53212;52.112;5.144;2022-08-25T00:40:05;11.00;;;7.00;;
66402;SDS011;53212;52.112;5.144;2022-08-25T00:42:32;9.70;;;7.10;;
66402;SDS011;53212;52.112;5.144;2022-08-25T00:44:57;8.40;;;7.40;;
66402;SDS011;53212;52.112;5.144;2022-08-25T00:47:24;8.40;;;7.60;;
66402;SDS011;53212;52.112;5.144;2022-08-25T00:49:52;8.60;;;7.60;;
66402;SDS011;53212;52.112;5.144;2022-08-25T00:52:29;8.10;;;7.30;;
66402;SDS011;53212;52.112;5.144;2022-08-25T00:55:06;8.10;;;6.70;;
66402;SDS011;53212;52.112;5.144;2022-08-25T00:57:37;9.30;;;7.30;;
66402;SDS011;53212;52.112;5.144;2022-08-25T01:00:10;10.70;;;7.90;;
66402;SDS011;53212;52.112;5.144;2022-08-25T01:02:49;9.10;;;7.60;;
66402;SDS011;53212;52.112;5.144;2022-08-25T01:05:16;9.20;;;7.80;;
66402;SDS011;53212;52.112;5.144;2022-08-25T01:07:43;12.10;;;8.00;;
66402;SDS011;53212;52.112;5.144;2022-08-25T01:10:14;10.30;;;8.10;;
66402;SDS011;53212;52.112;5.144;2022-08-25T01:12:47;8.40;;;7.30;;
66402;SDS011;53212;52.112;5.144;2022-08-25T01:15:15;7.50;;;6.90;;
66402;SDS011;53212;52.112;5.144;2022-08-25T01:17:51;8.30;;;7.40;;
66402;SDS011;53212;52.112;5.144;2022-08-25T01:20:23;8.70;;;7.50;;
66402;SDS011;53212;52.112;5.144;2022-08-25T01:22:55;11.20;;;7.10;;
66402;SDS011;53212;52.112;5.144;2022-08-25T01:25:32;8.90;;;7.40;;
66402;SDS011;53212;52.112;5.144;2022-08-25T01:28:22;8.90;;;7.70;;
66402;SDS011;53212;52.112;5.144;2022-08-25T01:30:48;9.50;;;7.60;;
66402;SDS011;53212;52.112;5.144;2022-08-25T01:33:19;8.80;;;7.90;;
66402;SDS011;53212;52.112;5.144;2022-08-25T01:35:47;9.80;;;8.20;;
66402;SDS011;53212;52.112;5.144;2022-08-25T01:38:13;9.00;;;7.70;;
66402;SDS011;53212;52.112;5.144;2022-08-25T01:40:41;8.00;;;7.10;;
66402;SDS011;53212;52.112;5.144;2022-08-25T01:43:30;11.60;;;7.70;;
66402;SDS011;53212;52.112;5.144;2022-08-25T01:46:03;7.80;;;7.10;;
66402;SDS011;53212;52.112;5.144;2022-08-25T01:48:29;8.70;;;6.90;;
66402;SDS011;53212;52.112;5.144;2022-08-25T01:50:58;9.80;;;7.30;;
66402;SDS011;53212;52.112;5.144;2022-08-25T01:53:29;9.10;;;7.80;;
66402;SDS011;53212;52.112;5.144;2022-08-25T01:55:58;8.20;;;7.20;;
66402;SDS011;53212;52.112;5.144;2022-08-25T01:58:36;8.50;;;7.40;;
66402;SDS011;53212;52.112;5.144;2022-08-25T02:01:10;8.10;;;6.80;;
66402;SDS011;53212;52.112;5.144;2022-08-25T02:03:44;7.70;;;6.90;;
66402;SDS011;53212;52.112;5.144;2022-08-25T02:06:15;8.80;;;6.80;;
66402;SDS011;53212;52.112;5.144;2022-08-25T02:09:51;7.90;;;6.90;;
66402;SDS011;53212;52.112;5.144;2022-08-25T02:12:37;8.20;;;6.80;;
66402;SDS011;53212;52.112;5.144;2022-08-25T02:15:05;7.60;;;6.90;;
66402;SDS011;53212;52.112;5.144;2022-08-25T02:17:38;7.90;;;6.80;;
66402;SDS011;53212;52.112;5.144;2022-08-25T02:20:07;7.40;;;6.70;;
66402;SDS011;53212;52.112;5.144;2022-08-25T02:22:34;10.10;;;7.40;;
66402;SDS011;53212;52.112;5.144;2022-08-25T02:25:05;8.60;;;7.00;;
66402;SDS011;53212;52.112;5.144;2022-08-25T02:27:31;7.10;;;6.40;;
66402;SDS011;53212;52.112;5.144;2022-08-25T02:30:04;7.60;;;6.20;;
66402;SDS011;53212;52.112;5.144;2022-08-25T02:32:30;6.30;;;5.70;;
66402;SDS011;53212;52.112;5.144;2022-08-25T02:34:56;7.30;;;6.50;;
66402;SDS011;53212;52.112;5.144;2022-08-25T02:37:22;6.30;;;5.80;;
66402;SDS011;53212;52.112;5.144;2022-08-25T02:39:48;7.10;;;6.40;;
66402;SDS011;53212;52.112;5.144;2022-08-25T02:42:14;7.00;;;6.30;;
66402;SDS011;53212;52.112;5.144;2022-08-25T02:44:40;6.00;;;5.50;;
66402;SDS011;53212;52.112;5.144;2022-08-25T02:47:11;6.30;;;5.80;;
66402;SDS011;53212;52.112;5.144;2022-08-25T02:49:41;6.30;;;5.80;;
66402;SDS011;53212;52.112;5.144;2022-08-25T02:52:07;6.30;;;5.60;;
66402;SDS011;53212;52.112;5.144;2022-08-25T02:54:33;6.70;;;5.40;;
66402;SDS011;53212;52.112;5.144;2022-08-25T02:57:02;6.20;;;5.60;;
66402;SDS011;53212;52.112;5.144;2022-08-25T02:59:29;5.50;;;5.10;;
66402;SDS011;53212;52.112;5.144;2022-08-25T03:01:58;6.80;;;5.80;;
66402;SDS011;53212;52.112;5.144;2022-08-25T03:04:24;5.60;;;4.70;;
66402;SDS011;53212;52.112;5.144;2022-08-25T03:06:52;7.60;;;5.90;;
66402;SDS011;53212;52.112;5.144;2022-08-25T03:09:25;6.80;;;5.20;;
66402;SDS011;53212;52.112;5.144;2022-08-25T03:11:51;6.80;;;5.50;;
66402;SDS011;53212;52.112;5.144;2022-08-25T03:14:17;6.10;;;5.20;;
66402;SDS011;53212;52.112;5.144;2022-08-25T03:16:43;11.90;;;5.70;;
66402;SDS011;53212;52.112;5.144;2022-08-25T03:19:11;8.30;;;5.20;;
66402;SDS011;53212;52.112;5.144;2022-08-25T03:21:37;6.30;;;5.20;;
66402;SDS011;53212;52.112;5.144;2022-08-25T03:24:04;5.60;;;5.10;;
66402;SDS011;53212;52.112;5.144;2022-08-25T03:26:30;5.70;;;5.10;;
66402;SDS011;53212;52.112;5.144;2022-08-25T03:29:15;5.70;;;4.80;;
66402;SDS011;53212;52.112;5.144;2022-08-25T03:31:53;5.00;;;4.60;;
66402;SDS011;53212;52.112;5.144;2022-08-25T03:34:23;6.00;;;4.70;;
66402;SDS011;53212;52.112;5.144;2022-08-25T03:36:55;5.30;;;4.70;;
66402;SDS011;53212;52.112;5.144;2022-08-25T03:39:26;5.50;;;4.50;;
66402;SDS011;53212;52.112;5.144;2022-08-25T03:41:54;5.20;;;4.70;;
66402;SDS011;53212;52.112;5.144;2022-08-25T03:44:20;5.40;;;4.90;;
66402;SDS011;53212;52.112;5.144;2022-08-25T03:46:49;6.20;;;4.50;;
66402;SDS011;53212;52.112;5.144;2022-08-25T03:49:23;5.10;;;4.50;;
66402;SDS011;53212;52.112;5.144;2022-08-25T03:51:51;7.30;;;4.60;;
66402;SDS011;53212;52.112;5.144;2022-08-25T03:54:21;8.50;;;4.90;;
66402;SDS011;53212;52.112;5.144;2022-08-25T03:56:50;7.00;;;4.80;;
66402;SDS011;53212;52.112;5.144;2022-08-25T03:59:16;7.10;;;4.50;;
66402;SDS011;53212;52.112;5.144;2022-08-25T04:01:43;5.30;;;4.70;;
66402;SDS011;53212;52.112;5.144;2022-08-25T04:04:19;5.20;;;4.60;;
66402;SDS011;53212;52.112;5.144;2022-08-25T04:06:45;4.80;;;4.40;;
66402;SDS011;53212;52.112;5.144;2022-08-25T04:09:11;6.00;;;4.40;;
66402;SDS011;53212;52.112;5.144;2022-08-25T04:11:37;5.10;;;4.40;;
66402;SDS011;53212;52.112;5.144;2022-08-25T04:14:07;4.70;;;4.30;;
66402;SDS011;53212;52.112;5.144;2022-08-25T04:16:34;4.70;;;4.30;;
66402;SDS011;53212;52.112;5.144;2022-08-25T04:19:04;6.70;;;4.60;;
66402;SDS011;53212;52.112;5.144;2022-08-25T04:21:35;6.50;;;4.40;;
66402;SDS011;53212;52.112;5.144;2022-08-25T04:24:06;4.50;;;4.10;;
66402;SDS011;53212;52.112;5.144;2022-08-25T04:26:44;5.80;;;4.40;;
66402;SDS011;53212;52.112;5.144;2022-08-25T04:29:17;8.10;;;4.10;;
66402;SDS011;53212;52.112;5.144;2022-08-25T04:31:49;5.50;;;4.10;;
66402;SDS011;53212;52.112;5.144;2022-08-25T04:34:17;7.00;;;4.10;;
66402;SDS011;53212;52.112;5.144;2022-08-25T04:37:00;6.00;;;4.10;;
66402;SDS011;53212;52.112;5.144;2022-08-25T13:06:05;4.60;;;1.80;;
66402;SDS011;53212;52.112;5.144;2022-08-25T13:15:32;2.90;;;1.90;;
66402;SDS011;53212;52.112;5.144;2022-08-25T13:21:17;7.80;;;1.80;;
66402;SDS011;53212;52.112;5.144;2022-08-25T13:23:49;3.60;;;1.90;;
66402;SDS011;53212;52.112;5.144;2022-08-25T13:26:45;2.30;;;1.80;;
66402;SDS011;53212;52.112;5.144;2022-08-25T13:29:23;5.30;;;2.00;;
66402;SDS011;53212;52.112;5.144;2022-08-25T13:34:30;4.60;;;1.90;;
66402;SDS011;53212;52.112;5.144;2022-08-25T13:37:07;3.10;;;2.00;;
66402;SDS011;53212;52.112;5.144;2022-08-25T13:42:48;3.30;;;1.90;;
66402;SDS011;53212;52.112;5.144;2022-08-25T13:45:21;3.00;;;1.80;;
66402;SDS011;53212;52.112;5.144;2022-08-25T13:47:49;2.60;;;2.00;;
66402;SDS011;53212;52.112;5.144;2022-08-25T13:52:59;2.10;;;1.70;;
66402;SDS011;53212;52.112;5.144;2022-08-25T13:58:15;3.00;;;1.70;;
66402;SDS011;53212;52.112;5.144;2022-08-25T14:01:16;5.20;;;2.00;;
66402;SDS011;53212;52.112;5.144;2022-08-25T14:03:51;4.60;;;2.10;;
66402;SDS011;53212;52.112;5.144;2022-08-25T14:06:25;2.90;;;1.90;;
66402;SDS011;53212;52.112;5.144;2022-08-25T14:09:18;4.60;;;1.80;;
66402;SDS011;53212;52.112;5.144;2022-08-25T14:11:55;2.90;;;1.90;;
66402;SDS011;53212;52.112;5.144;2022-08-25T14:17:03;3.60;;;2.00;;
66402;SDS011;53212;52.112;5.144;2022-08-25T14:19:35;5.70;;;2.10;;
66402;SDS011;53212;52.112;5.144;2022-08-25T14:27:26;4.00;;;2.10;;
66402;SDS011;53212;52.112;5.144;2022-08-25T14:30:50;4.20;;;1.90;;
66402;SDS011;53212;52.112;5.144;2022-08-25T14:33:24;4.20;;;2.00;;
66402;SDS011;53212;52.112;5.144;2022-08-25T14:35:53;2.60;;;1.90;;
66402;SDS011;53212;52.112;5.144;2022-08-25T14:38:23;5.30;;;2.10;;
66402;SDS011;53212;52.112;5.144;2022-08-25T14:40:52;2.10;;;1.90;;
66402;SDS011;53212;52.112;5.144;2022-08-25T14:46:26;2.40;;;2.00;;
66402;SDS011;53212;52.112;5.144;2022-08-25T14:49:03;3.70;;;1.80;;
66402;SDS011;53212;52.112;5.144;2022-08-25T14:51:32;7.70;;;2.00;;
66402;SDS011;53212;52.112;5.144;2022-08-25T14:54:18;2.70;;;1.90;;
66402;SDS011;53212;52.112;5.144;2022-08-25T14:57:12;2.90;;;2.00;;
66402;SDS011;53212;52.112;5.144;2022-08-25T14:59:46;4.40;;;1.80;;
66402;SDS011;53212;52.112;5.144;2022-08-25T15:02:15;1.70;;;1.60;;
66402;SDS011;53212;52.112;5.144;2022-08-25T15:05:11;2.10;;;1.90;;
66402;SDS011;53212;52.112;5.144;2022-08-25T15:07:39;3.30;;;1.80;;
66402;SDS011;53212;52.112;5.144;2022-08-25T15:10:24;4.10;;;2.00;;
66402;SDS011;53212;52.112;5.144;2022-08-25T15:12:50;3.00;;;2.10;;
66402;SDS011;53212;52.112;5.144;2022-08-25T15:15:16;3.40;;;1.60;;
66402;SDS011;53212;52.112;5.144;2022-08-25T15:17:43;2.50;;;1.80;;
66402;SDS011;53212;52.112;5.144;2022-08-25T15:20:11;3.80;;;1.70;;
66402;SDS011;53212;52.112;5.144;2022-08-25T15:22:38;4.20;;;1.80;;
66402;SDS011;53212;52.112;5.144;2022-08-25T15:25:09;2.60;;;2.00;;
66402;SDS011;53212;52.112;5.144;2022-08-25T15:27:35;12.80;;;1.90;;
66402;SDS011;53212;52.112;5.144;2022-08-25T15:30:05;2.50;;;2.30;;
66402;SDS011;53212;52.112;5.144;2022-08-25T15:32:34;3.10;;;2.00;;
66402;SDS011;53212;52.112;5.144;2022-08-25T15:35:07;3.00;;;2.10;;
66402;SDS011;53212;52.112;5.144;2022-08-25T15:37:48;5.00;;;2.40;;
66402;SDS011;53212;52.112;5.144;2022-08-25T15:40:24;2.40;;;2.10;;
66402;SDS011;53212;52.112;5.144;2022-08-25T15:43:00;4.40;;;2.10;;
66402;SDS011;53212;52.112;5.144;2022-08-25T15:45:36;7.70;;;2.60;;
66402;SDS011;53212;52.112;5.144;2022-08-25T15:48:05;5.40;;;2.30;;
66402;SDS011;53212;52.112;5.144;2022-08-25T15:50:42;4.20;;;2.00;;
66402;SDS011;53212;52.112;5.144;2022-08-25T15:53:12;2.70;;;2.00;;
66402;SDS011;53212;52.112;5.144;2022-08-25T15:55:38;3.40;;;2.10;;
66402;SDS011;53212;52.112;5.144;2022-08-25T15:58:08;2.80;;;1.90;;
66402;SDS011;53212;52.112;5.144;2022-08-25T16:00:36;6.20;;;2.30;;
66402;SDS011;53212;52.112;5.144;2022-08-25T16:03:10;2.50;;;2.30;;
66402;SDS011;53212;52.112;5.144;2022-08-25T16:05:40;3.70;;;2.30;;
66402;SDS011;53212;52.112;5.144;2022-08-25T16:08:12;5.60;;;2.20;;
66402;SDS011;53212;52.112;5.144;2022-08-25T16:10:46;4.00;;;2.50;;
66402;SDS011;53212;52.112;5.144;2022-08-25T16:13:12;5.30;;;2.40;;
66402;SDS011;53212;52.112;5.144;2022-08-25T16:15:47;8.00;;;2.60;;
66402;SDS011;53212;52.112;5.144;2022-08-25T16:18:21;3.90;;;2.30;;
66402;SDS011;53212;52.112;5.144;2022-08-25T16:20:48;7.10;;;2.90;;
66402;SDS011;53212;52.112;5.144;2022-08-25T16:23:17;5.30;;;2.80;;
66402;SDS011;53212;52.112;5.144;2022-08-25T16:25:46;2.80;;;2.50;;
66402;SDS011;53212;52.112;5.144;2022-08-25T16:28:45;3.80;;;2.40;;
66402;SDS011;53212;52.112;5.144;2022-08-25T16:31:13;4.00;;;2.70;;
66402;SDS011;53212;52.112;5.144;2022-08-25T16:33:44;4.10;;;2.90;;
66402;SDS011;53212;52.112;5.144;2022-08-25T16:36:21;3.70;;;2.80;;
66402;SDS011;53212;52.112;5.144;2022-08-25T16:38:51;4.00;;;3.00;;
66402;SDS011;53212;52.112;5.144;2022-08-25T16:41:45;5.60;;;3.50;;
66402;SDS011;53212;52.112;5.144;2022-08-25T16:44:23;7.00;;;4.50;;
66402;SDS011;53212;52.112;5.144;2022-08-25T16:47:07;3.60;;;3.20;;
66402;SDS011;53212;52.112;5.144;2022-08-25T16:49:36;7.90;;;4.70;;
66402;SDS011;53212;52.112;5.144;2022-08-25T16:52:05;5.10;;;4.60;;
66402;SDS011;53212;52.112;5.144;2022-08-25T16:57:50;7.30;;;5.20;;
66402;SDS011;53212;52.112;5.144;2022-08-25T17:00:23;7.60;;;5.50;;
66402;SDS011;53212;52.112;5.144;2022-08-25T17:03:18;11.20;;;8.20;;
66402;SDS011;53212;52.112;5.144;2022-08-25T17:06:18;9.00;;;7.20;;
66402;SDS011;53212;52.112;5.144;2022-08-25T17:12:29;12.50;;;9.00;;
66402;SDS011;53212;52.112;5.144;2022-08-25T17:15:06;14.40;;;11.30;;
66402;SDS011;53212;52.112;5.144;2022-08-25T17:17:32;24.70;;;11.70;;
66402;SDS011;53212;52.112;5.144;2022-08-25T17:20:08;12.10;;;10.00;;
66402;SDS011;53212;52.112;5.144;2022-08-25T17:22:37;19.70;;;11.00;;
66402;SDS011;53212;52.112;5.144;2022-08-25T17:25:03;12.60;;;9.10;;
66402;SDS011;53212;52.112;5.144;2022-08-25T17:27:32;15.10;;;11.40;;
66402;SDS011;53212;52.112;5.144;2022-08-25T17:30:04;12.90;;;9.50;;
66402;SDS011;53212;52.112;5.144;2022-08-25T17:32:41;19.90;;;12.20;;
66402;SDS011;53212;52.112;5.144;2022-08-25T17:35:07;11.20;;;10.10;;
66402;SDS011;53212;52.112;5.144;2022-08-25T17:37:36;15.30;;;12.30;;
66402;SDS011;53212;52.112;5.144;2022-08-25T17:40:05;15.70;;;13.30;;
66402;SDS011;53212;52.112;5.144;2022-08-25T17:42:32;18.40;;;14.90;;
66402;SDS011;53212;52.112;5.144;2022-08-25T17:45:01;13.70;;;11.60;;
66402;SDS011;53212;52.112;5.144;2022-08-25T17:47:31;17.50;;;12.80;;
66402;SDS011;53212;52.112;5.144;2022-08-25T17:50:00;12.90;;;8.30;;
66402;SDS011;53212;52.112;5.144;2022-08-25T17:52:26;21.10;;;13.00;;
66402;SDS011;53212;52.112;5.144;2022-08-25T17:54:52;14.80;;;11.80;;
66402;SDS011;53212;52.112;5.144;2022-08-25T17:57:18;13.90;;;11.70;;
66402;SDS011;53212;52.112;5.144;2022-08-25T17:59:45;13.30;;;10.30;;
66402;SDS011;53212;52.112;5.144;2022-08-25T18:02:11;13.90;;;12.10;;
66402;SDS011;53212;52.112;5.144;2022-08-25T18:04:37;13.40;;;12.10;;
